createdAt,value
2023-07-25T00:02:10.964Z,6.93
2023-07-25T00:04:38.538Z,4.97
2023-07-25T00:07:05.931Z,7.20
2023-07-25T00:09:32.973Z,11.77
2023-07-25T00:12:00.037Z,5.35
2023-07-25T00:14:27.070Z,5.57
2023-07-25T00:16:54.146Z,5.45
2023-07-25T00:19:21.615Z,9.10
2023-07-25T00:21:48.711Z,10.38
2023-07-25T00:24:15.885Z,12.27
2023-07-25T00:26:43.143Z,5.30
2023-07-25T00:29:13.365Z,8.75
2023-07-25T00:31:40.473Z,7.75
2023-07-25T00:34:07.969Z,10.32
2023-07-25T00:36:34.946Z,8.52
2023-07-25T00:39:01.994Z,8.13
2023-07-25T00:41:29.379Z,5.82
2023-07-25T00:43:56.669Z,7.93
2023-07-25T00:46:25.168Z,8.52
2023-07-25T00:48:52.568Z,5.35
2023-07-25T00:51:19.615Z,6.18
2023-07-25T00:53:46.870Z,7.90
2023-07-25T00:56:14.847Z,9.52
2023-07-25T00:58:41.882Z,7.43
2023-07-25T01:01:09.193Z,5.35
2023-07-25T01:03:38.537Z,13.07
2023-07-25T01:06:10.744Z,4.60
2023-07-25T01:08:58.185Z,7.05
2023-07-25T01:11:25.492Z,8.20
2023-07-25T01:13:52.920Z,7.82
2023-07-25T01:16:24.619Z,6.93
2023-07-25T01:18:53.104Z,6.10
2023-07-25T01:21:22.946Z,6.22
2023-07-25T01:23:50.592Z,5.68
2023-07-25T01:26:18.852Z,8.00
2023-07-25T01:28:45.858Z,8.05
2023-07-25T01:31:12.927Z,6.45
2023-07-25T01:33:39.980Z,6.05
2023-07-25T01:36:07.300Z,5.72
2023-07-25T01:38:34.553Z,6.40
2023-07-25T01:41:01.668Z,6.63
2023-07-25T01:43:28.719Z,5.30
2023-07-25T01:45:56.600Z,6.25
2023-07-25T01:48:23.670Z,5.63
2023-07-25T01:50:50.743Z,6.95
2023-07-25T01:53:17.768Z,7.88
2023-07-25T01:55:44.771Z,7.30
2023-07-25T01:58:11.817Z,6.63
2023-07-25T02:00:38.899Z,11.35
2023-07-25T02:03:06.001Z,9.15
2023-07-25T02:05:33.097Z,6.07
2023-07-25T02:08:00.301Z,9.10
2023-07-25T02:10:28.998Z,9.48
2023-07-25T02:12:57.370Z,8.82
2023-07-25T02:15:24.490Z,9.88
2023-07-25T02:17:51.928Z,5.78
2023-07-25T02:20:19.422Z,7.07
2023-07-25T02:22:46.423Z,6.95
2023-07-25T02:25:13.468Z,7.38
2023-07-25T02:27:40.604Z,12.10
2023-07-25T02:30:08.216Z,9.18
2023-07-25T02:32:35.280Z,6.90
2023-07-25T02:35:02.312Z,4.50
2023-07-25T02:37:29.425Z,7.80
2023-07-25T02:39:56.452Z,7.28
2023-07-25T02:42:23.526Z,7.63
2023-07-25T02:44:50.649Z,8.13
2023-07-25T02:47:17.675Z,6.30
2023-07-25T02:49:44.731Z,7.05
2023-07-25T02:52:11.814Z,6.85
2023-07-25T02:54:38.843Z,8.23
2023-07-25T02:57:06.897Z,5.32
2023-07-25T02:59:34.090Z,6.50
2023-07-25T03:02:03.872Z,7.93
2023-07-25T03:04:31.578Z,6.55
2023-07-25T03:06:58.605Z,9.80
2023-07-25T03:09:25.829Z,9.63
2023-07-25T03:11:52.836Z,9.07
2023-07-25T03:14:20.891Z,6.80
2023-07-25T03:16:47.964Z,6.97
2023-07-25T03:19:15.049Z,8.15
2023-07-25T03:21:42.508Z,6.82
2023-07-25T03:24:09.899Z,7.75
2023-07-25T03:26:37.039Z,8.93
2023-07-25T03:29:04.131Z,9.95
2023-07-25T03:31:31.445Z,7.28
2023-07-25T03:33:58.778Z,7.95
2023-07-25T03:36:26.949Z,7.47
2023-07-25T03:38:54.068Z,7.28
2023-07-25T03:41:21.139Z,11.45
2023-07-25T03:43:48.265Z,7.72
2023-07-25T03:46:15.398Z,9.20
2023-07-25T03:48:42.551Z,7.85
2023-07-25T03:51:09.584Z,7.95
2023-07-25T03:53:36.579Z,9.48
2023-07-25T03:56:04.288Z,8.90
2023-07-25T03:58:31.417Z,8.50
2023-07-25T04:00:58.434Z,15.98
2023-07-25T04:03:27.678Z,9.07
2023-07-25T04:05:54.985Z,8.03
2023-07-25T04:08:22.100Z,6.38
2023-07-25T04:10:49.186Z,7.20
2023-07-25T04:13:16.216Z,4.63
2023-07-25T04:15:43.207Z,7.38
2023-07-25T04:18:10.434Z,8.52
2023-07-25T04:20:37.510Z,10.32
2023-07-25T04:23:04.585Z,6.07
2023-07-25T04:25:31.692Z,9.45
2023-07-25T04:27:58.787Z,5.95
2023-07-25T04:30:25.789Z,9.60
2023-07-25T04:32:52.886Z,6.28
2023-07-25T04:35:20.458Z,13.07
2023-07-25T04:37:47.630Z,6.25
2023-07-25T04:40:15.086Z,8.85
2023-07-25T04:42:42.263Z,9.63
2023-07-25T04:45:09.967Z,10.23
2023-07-25T04:47:37.027Z,9.00
2023-07-25T04:50:04.323Z,7.18
2023-07-25T04:52:31.393Z,6.38
2023-07-25T04:55:00.215Z,7.57
2023-07-25T04:57:27.797Z,7.93
2023-07-25T04:59:55.277Z,6.57
2023-07-25T05:02:23.121Z,7.50
2023-07-25T05:04:50.157Z,8.00
2023-07-25T05:07:18.448Z,5.95
2023-07-25T05:09:45.675Z,5.55
2023-07-25T05:12:14.515Z,4.80
2023-07-25T05:14:42.409Z,6.05
2023-07-25T05:17:09.473Z,4.68
2023-07-25T05:19:37.441Z,7.43
2023-07-25T05:22:04.683Z,5.68
2023-07-25T05:24:32.750Z,6.88
2023-07-25T05:27:00.429Z,6.90
2023-07-25T05:29:28.113Z,7.47
2023-07-25T05:31:55.122Z,6.60
2023-07-25T05:34:22.255Z,7.70
2023-07-25T05:36:49.263Z,7.32
2023-07-25T05:39:16.295Z,10.43
2023-07-25T05:41:44.215Z,9.40
2023-07-25T05:44:11.255Z,6.82
2023-07-25T05:46:38.302Z,8.05
2023-07-25T05:49:08.199Z,5.40
2023-07-25T05:51:35.583Z,6.57
2023-07-25T05:54:02.685Z,7.97
2023-07-25T05:56:29.785Z,12.40
2023-07-25T05:58:56.815Z,8.60
2023-07-25T06:01:23.847Z,8.27
2023-07-25T06:03:51.023Z,6.43
2023-07-25T06:06:18.105Z,8.05
2023-07-25T06:08:45.110Z,7.78
2023-07-25T06:11:12.121Z,6.55
2023-07-25T06:13:39.444Z,7.55
2023-07-25T06:16:06.702Z,11.68
2023-07-25T06:18:33.741Z,7.22
2023-07-25T06:21:00.810Z,9.00
2023-07-25T06:23:27.881Z,8.27
2023-07-25T06:25:57.485Z,6.82
2023-07-25T06:28:24.525Z,5.07
2023-07-25T06:30:51.696Z,7.80
2023-07-25T06:33:18.730Z,6.32
2023-07-25T06:35:45.983Z,5.93
2023-07-25T06:38:13.060Z,4.47
2023-07-25T06:40:40.080Z,5.82
2023-07-25T06:43:07.133Z,5.70
2023-07-25T06:45:34.191Z,4.45
2023-07-25T06:48:01.327Z,5.03
2023-07-25T06:50:28.552Z,7.65
2023-07-25T06:52:55.674Z,3.97
2023-07-25T06:55:22.664Z,4.00
2023-07-25T06:57:49.692Z,3.25
2023-07-25T07:00:16.853Z,5.07
2023-07-25T07:02:44.363Z,3.92
2023-07-25T07:05:23.793Z,5.13
2023-07-25T07:07:56.895Z,5.70
2023-07-25T07:10:24.020Z,5.95
2023-07-25T07:12:51.889Z,6.38
2023-07-25T07:15:19.356Z,4.03
2023-07-25T07:17:46.383Z,5.05
2023-07-25T07:20:13.552Z,7.00
2023-07-25T07:22:40.525Z,4.95
2023-07-25T07:25:08.089Z,4.90
2023-07-25T07:27:35.118Z,5.30
2023-07-25T07:30:03.432Z,8.55
2023-07-25T07:32:30.554Z,5.22
2023-07-25T07:34:57.590Z,4.88
2023-07-25T07:37:24.611Z,6.70
2023-07-25T07:39:51.640Z,4.75
2023-07-25T07:42:19.020Z,5.82
2023-07-25T07:44:46.222Z,6.55
2023-07-25T07:47:13.267Z,5.38
2023-07-25T07:49:40.412Z,8.52
2023-07-25T07:52:15.438Z,4.82
2023-07-25T07:54:44.708Z,5.00
2023-07-25T07:57:11.816Z,6.03
2023-07-25T07:59:39.452Z,4.45
2023-07-25T08:02:07.192Z,5.50
2023-07-25T08:04:34.329Z,7.10
2023-07-25T08:07:02.255Z,4.30
2023-07-25T08:09:29.243Z,6.40
2023-07-25T08:11:56.293Z,4.72
2023-07-25T08:14:23.322Z,4.10
2023-07-25T08:16:51.472Z,6.88
2023-07-25T08:19:18.604Z,5.07
2023-07-25T08:21:45.619Z,5.10
2023-07-25T08:24:12.653Z,7.57
2023-07-25T08:26:39.704Z,5.60
2023-07-25T08:29:06.805Z,5.20
2023-07-25T08:31:34.151Z,4.50
2023-07-25T08:34:01.607Z,4.65
2023-07-25T08:36:28.685Z,7.82
2023-07-25T08:38:55.733Z,5.82
2023-07-25T08:41:27.831Z,7.63
2023-07-25T08:43:59.978Z,3.58
2023-07-25T08:46:29.141Z,4.30
2023-07-25T08:49:04.675Z,4.85
2023-07-25T08:51:36.318Z,4.70
2023-07-25T08:54:06.860Z,5.68
2023-07-25T08:56:36.321Z,4.45
2023-07-25T08:59:05.034Z,8.20
2023-07-25T09:01:33.377Z,3.60
2023-07-25T09:04:02.017Z,3.47
2023-07-25T09:06:31.652Z,2.65
2023-07-25T09:08:58.983Z,3.40
2023-07-25T09:11:27.428Z,3.13
2023-07-25T09:13:54.597Z,2.65
2023-07-25T09:16:23.658Z,3.00
2023-07-25T09:18:50.794Z,6.05
2023-07-25T09:21:20.107Z,3.30
2023-07-25T09:23:57.728Z,2.10
2023-07-25T09:26:30.800Z,2.45
2023-07-25T09:29:01.870Z,4.00
2023-07-25T09:31:30.319Z,3.95
2023-07-25T09:33:58.232Z,3.58
2023-07-25T09:36:30.813Z,5.50
2023-07-25T09:39:00.199Z,2.55
2023-07-25T09:41:27.994Z,3.53
2023-07-25T09:44:00.861Z,2.00
2023-07-25T09:46:27.999Z,4.57
2023-07-25T09:48:55.728Z,5.35
2023-07-25T09:51:22.845Z,2.10
2023-07-25T09:53:55.129Z,4.18
2023-07-25T09:56:27.419Z,2.42
2023-07-25T10:01:26.894Z,2.30
2023-07-25T10:03:54.707Z,2.55
2023-07-25T10:06:22.093Z,2.20
2023-07-25T10:08:49.887Z,4.07
2023-07-25T10:11:17.394Z,2.20
2023-07-25T10:13:45.015Z,4.00
2023-07-25T10:16:15.794Z,2.40
2023-07-25T10:18:43.232Z,3.22
2023-07-25T10:21:13.062Z,3.28
2023-07-25T10:23:40.584Z,2.35
2023-07-25T10:26:15.567Z,2.25
2023-07-25T10:28:42.880Z,3.65
2023-07-25T10:31:23.935Z,3.67
2023-07-25T10:33:56.285Z,6.32
2023-07-25T10:36:24.956Z,3.35
2023-07-25T10:38:53.977Z,3.30
2023-07-25T10:41:21.786Z,3.33
2023-07-25T10:43:57.072Z,1.83
2023-07-25T10:46:29.449Z,2.72
2023-07-25T10:48:59.932Z,3.55
2023-07-25T10:51:54.523Z,3.58
2023-07-25T10:54:23.757Z,2.30
2023-07-25T10:57:18.499Z,2.65
2023-07-25T11:00:02.541Z,3.25
2023-07-25T11:02:31.844Z,2.25
2023-07-25T11:05:14.538Z,1.50
2023-07-25T11:07:54.916Z,2.28
2023-07-25T11:13:01.402Z,1.92
2023-07-25T11:15:45.694Z,2.25
2023-07-25T11:18:14.397Z,1.73
2023-07-25T11:20:41.559Z,1.45
2023-07-25T11:23:08.923Z,2.42
2023-07-25T11:25:36.375Z,1.92
2023-07-25T11:28:07.661Z,3.92
2023-07-25T11:30:35.871Z,2.70
2023-07-25T11:33:03.292Z,2.40
2023-07-25T11:35:31.308Z,2.30
2023-07-25T11:38:03.919Z,2.63
2023-07-25T11:40:41.836Z,1.75
2023-07-25T11:43:15.648Z,3.53
2023-07-25T11:45:45.454Z,2.17
2023-07-25T11:48:15.445Z,2.22
2023-07-25T11:50:44.456Z,3.75
2023-07-25T11:53:12.534Z,2.05
2023-07-25T11:55:39.710Z,1.30
2023-07-25T11:58:07.198Z,2.45
2023-07-25T12:00:41.847Z,3.10
2023-07-25T12:04:14.490Z,2.10
2023-07-25T12:06:47.555Z,1.73
2023-07-25T12:09:16.518Z,1.75
2023-07-25T12:11:45.056Z,1.80
2023-07-25T12:14:13.897Z,5.03
2023-07-25T12:16:45.219Z,1.92
2023-07-25T12:19:15.536Z,5.22
2023-07-25T12:21:45.245Z,2.17
2023-07-25T12:24:14.621Z,1.67
2023-07-25T12:26:45.855Z,1.80
2023-07-25T12:29:16.925Z,2.95
2023-07-25T12:31:44.643Z,4.53
2023-07-25T12:34:12.089Z,2.20
2023-07-25T12:36:39.422Z,2.90
2023-07-25T12:39:07.153Z,2.35
2023-07-25T12:41:34.389Z,1.45
2023-07-25T12:44:01.590Z,2.15
2023-07-25T12:46:29.539Z,2.10
2023-07-25T12:48:57.049Z,2.17
2023-07-25T12:51:24.086Z,1.38
2023-07-25T12:53:51.230Z,2.05
2023-07-25T12:56:18.314Z,1.42
2023-07-25T12:58:45.464Z,3.47
2023-07-25T13:01:12.984Z,2.47
2023-07-25T13:03:43.547Z,3.13
2023-07-25T13:06:11.290Z,4.97
2023-07-25T13:08:38.325Z,2.33
2023-07-25T13:11:05.707Z,3.45
2023-07-25T13:13:32.778Z,1.75
2023-07-25T13:16:00.237Z,3.15
2023-07-25T13:18:27.372Z,2.05
2023-07-25T13:20:54.576Z,2.28
2023-07-25T13:23:22.032Z,3.40
2023-07-25T13:25:49.133Z,2.45
2023-07-25T13:28:18.075Z,1.50
2023-07-25T13:30:45.257Z,1.92
2023-07-25T13:33:12.451Z,2.97
2023-07-25T13:35:39.617Z,2.10
2023-07-25T13:38:18.842Z,2.60
2023-07-25T13:40:54.061Z,4.22
2023-07-25T13:43:21.161Z,1.83
2023-07-25T13:45:53.112Z,2.20
2023-07-25T13:48:22.135Z,3.38
2023-07-25T13:50:54.286Z,2.90
2023-07-25T13:53:23.298Z,1.98
2023-07-25T13:55:50.618Z,3.50
2023-07-25T14:03:15.014Z,2.63
2023-07-25T14:05:42.350Z,2.67
2023-07-25T14:08:09.497Z,2.67
2023-07-25T14:10:43.660Z,5.97
2023-07-25T14:13:10.829Z,1.83
2023-07-25T14:15:38.048Z,3.45
2023-07-25T14:18:05.389Z,3.22
2023-07-25T14:20:33.125Z,4.63
2023-07-25T14:23:00.400Z,2.63
2023-07-25T14:25:27.593Z,2.60
2023-07-25T14:27:54.884Z,1.73
2023-07-25T14:30:21.882Z,3.00
2023-07-25T14:32:49.081Z,2.83
2023-07-25T14:35:16.540Z,2.53
2023-07-25T14:37:53.540Z,1.77
2023-07-25T14:40:24.306Z,1.50
2023-07-25T14:42:51.653Z,1.52
2023-07-25T14:45:18.786Z,1.25
2023-07-25T14:47:46.101Z,1.83
2023-07-25T14:50:14.224Z,0.95
2023-07-25T14:52:42.172Z,1.25
2023-07-25T14:55:09.796Z,1.15
2023-07-25T14:57:36.882Z,2.15
2023-07-25T15:00:06.770Z,2.97
2023-07-25T15:02:36.734Z,2.78
2023-07-25T15:05:05.326Z,1.90
2023-07-25T15:07:34.952Z,5.00
2023-07-25T15:10:02.652Z,2.25
2023-07-25T15:12:29.954Z,2.40
2023-07-25T15:14:57.132Z,4.45
2023-07-25T15:17:25.961Z,2.42
2023-07-25T15:20:02.480Z,3.15
2023-07-25T15:22:29.895Z,4.05
2023-07-25T15:24:57.666Z,3.08
2023-07-25T15:27:24.928Z,2.35
2023-07-25T15:29:52.220Z,1.60
2023-07-25T15:32:19.387Z,2.35
2023-07-25T15:34:46.571Z,1.52
2023-07-25T15:37:14.135Z,2.65
2023-07-25T15:39:41.434Z,2.67
2023-07-25T15:42:08.908Z,3.25
2023-07-25T15:44:35.958Z,2.08
2023-07-25T15:47:05.961Z,1.55
2023-07-25T15:49:33.139Z,2.40
2023-07-25T15:52:00.719Z,1.42
2023-07-25T15:54:29.000Z,2.42
2023-07-25T15:56:55.995Z,3.35
2023-07-25T15:59:25.504Z,3.13
2023-07-25T16:01:53.855Z,4.22
2023-07-25T16:04:21.110Z,5.10
2023-07-25T16:06:48.542Z,4.40
2023-07-25T16:09:15.697Z,3.38
2023-07-25T16:11:45.781Z,1.27
2023-07-25T16:14:12.830Z,1.45
2023-07-25T16:16:44.735Z,1.00
2023-07-25T16:19:12.206Z,1.60
2023-07-25T16:21:42.632Z,0.93
2023-07-25T16:24:09.975Z,1.23
2023-07-25T16:26:37.289Z,1.92
2023-07-25T16:29:06.620Z,1.02
2023-07-25T16:31:34.164Z,1.88
2023-07-25T16:34:01.727Z,1.63
2023-07-25T16:36:28.949Z,2.88
2023-07-25T16:38:56.304Z,1.42
2023-07-25T16:41:23.568Z,1.60
2023-07-25T16:43:50.630Z,3.65
2023-07-25T16:46:18.389Z,2.88
2023-07-25T16:48:45.872Z,1.33
2023-07-25T16:51:13.050Z,1.50
2023-07-25T16:53:40.184Z,3.03
2023-07-25T16:56:07.535Z,3.22
2023-07-25T16:58:34.950Z,3.83
2023-07-25T17:01:02.764Z,3.22
2023-07-25T17:03:30.487Z,2.75
2023-07-25T17:06:03.820Z,1.48
2023-07-25T17:08:32.240Z,2.03
2023-07-25T17:11:05.700Z,4.10
2023-07-25T17:13:33.753Z,2.30
2023-07-25T17:16:01.557Z,1.92
2023-07-25T17:18:30.775Z,3.03
2023-07-25T17:20:58.078Z,2.67
2023-07-25T17:23:25.310Z,1.30
2023-07-25T17:25:52.781Z,3.40
2023-07-25T17:28:19.931Z,3.83
2023-07-25T17:30:50.064Z,2.83
2023-07-25T17:33:17.388Z,1.35
2023-07-25T17:35:44.842Z,1.40
2023-07-25T17:38:15.629Z,1.50
2023-07-25T17:40:43.651Z,1.55
2023-07-25T17:43:11.147Z,3.00
2023-07-25T17:45:38.360Z,1.80
2023-07-25T17:48:05.606Z,1.73
2023-07-25T17:50:33.188Z,1.33
2023-07-25T17:53:00.783Z,1.38
2023-07-25T17:55:27.858Z,0.77
2023-07-25T17:57:54.946Z,2.65
2023-07-25T18:00:22.284Z,1.90
2023-07-25T18:02:49.627Z,2.55
2023-07-25T18:05:16.868Z,3.35
2023-07-25T18:07:43.914Z,2.30
2023-07-25T18:10:11.175Z,3.67
2023-07-25T18:12:38.230Z,1.73
2023-07-25T18:15:05.910Z,1.70
2023-07-25T18:17:32.986Z,2.97
2023-07-25T18:20:00.093Z,1.52
2023-07-25T18:22:29.093Z,3.47
2023-07-25T18:24:56.452Z,3.70
2023-07-25T18:27:23.605Z,5.97
2023-07-25T18:29:50.780Z,3.90
2023-07-25T18:32:17.909Z,1.80
2023-07-25T18:34:44.987Z,3.03
2023-07-25T18:37:12.223Z,1.95
2023-07-25T18:39:39.277Z,2.97
2023-07-25T18:42:06.819Z,1.38
2023-07-25T18:44:33.875Z,1.60
2023-07-25T18:47:00.955Z,1.88
2023-07-25T18:49:28.148Z,2.53
2023-07-25T18:51:55.514Z,2.22
2023-07-25T18:54:22.670Z,3.28
2023-07-25T18:56:49.776Z,1.38
2023-07-25T18:59:17.166Z,2.50
2023-07-25T19:01:44.505Z,1.95
2023-07-25T19:04:12.011Z,2.08
2023-07-25T19:06:39.341Z,1.65
2023-07-25T19:09:06.602Z,2.22
2023-07-25T19:11:33.666Z,1.25
2023-07-25T19:14:00.801Z,3.38
2023-07-25T19:16:27.880Z,1.35
2023-07-25T19:18:55.092Z,2.03
2023-07-25T19:21:22.204Z,1.85
2023-07-25T19:23:49.249Z,4.20
2023-07-25T19:26:16.328Z,2.40
2023-07-25T19:28:43.390Z,1.40
2023-07-25T19:31:13.544Z,2.03
2023-07-25T19:33:40.693Z,1.77
2023-07-25T19:36:07.798Z,2.38
2023-07-25T19:38:35.161Z,3.40
2023-07-25T19:41:02.282Z,2.47
2023-07-25T19:43:29.400Z,2.03
2023-07-25T19:46:03.951Z,1.50
2023-07-25T19:48:31.156Z,1.55
2023-07-25T19:50:58.241Z,3.28
2023-07-25T19:53:25.373Z,2.05
2023-07-25T19:55:54.699Z,1.63
2023-07-25T19:58:21.931Z,1.83
2023-07-25T20:00:49.142Z,4.47
2023-07-25T20:03:16.453Z,2.78
2023-07-25T20:05:43.666Z,2.60
2023-07-25T20:08:10.719Z,2.15
2023-07-25T20:10:37.868Z,1.75
2023-07-25T20:13:05.004Z,2.58
2023-07-25T20:15:32.159Z,2.78
2023-07-25T20:17:59.256Z,2.28
2023-07-25T20:20:26.421Z,3.53
2023-07-25T20:22:53.652Z,1.65
2023-07-25T20:25:24.853Z,2.30
2023-07-25T20:27:52.168Z,1.40
2023-07-25T20:30:19.327Z,1.08
2023-07-25T20:32:46.821Z,3.33
2023-07-25T20:35:13.995Z,2.22
2023-07-25T20:37:41.027Z,2.08
2023-07-25T20:40:09.782Z,2.92
2023-07-25T20:42:37.178Z,1.95
2023-07-25T20:45:04.651Z,1.13
2023-07-25T20:47:33.996Z,1.40
2023-07-25T20:50:01.089Z,1.20
2023-07-25T20:52:28.730Z,1.40
2023-07-25T20:54:55.738Z,1.70
2023-07-25T20:57:22.946Z,1.30
2023-07-25T20:59:50.035Z,1.23
2023-07-25T21:02:17.311Z,1.25
2023-07-25T21:04:44.418Z,2.05
2023-07-25T21:07:12.603Z,1.67
2023-07-25T21:09:39.712Z,1.55
2023-07-25T21:12:07.124Z,3.33
2023-07-25T21:14:34.353Z,4.63
2023-07-25T21:17:02.011Z,2.25
2023-07-25T21:19:29.173Z,2.28
2023-07-25T21:21:56.254Z,1.55
2023-07-25T21:24:23.403Z,3.33
2023-07-25T21:26:50.601Z,2.03
2023-07-25T21:29:17.625Z,1.95
2023-07-25T21:31:44.688Z,2.85
2023-07-25T21:34:11.772Z,1.05
2023-07-25T21:36:39.081Z,2.08
2023-07-25T21:39:06.763Z,1.40
2023-07-25T21:41:33.914Z,1.08
2023-07-25T21:44:03.624Z,1.27
2023-07-25T21:46:30.823Z,1.00
2023-07-25T21:48:58.107Z,2.40
2023-07-25T21:51:25.181Z,3.92
2023-07-25T21:53:52.318Z,2.08
2023-07-25T21:56:19.349Z,1.60
2023-07-25T21:58:46.569Z,2.10
2023-07-25T22:01:13.903Z,1.63
2023-07-25T22:03:41.055Z,1.85
2023-07-25T22:06:08.212Z,1.90
2023-07-25T22:08:35.374Z,1.30
2023-07-25T22:11:02.809Z,2.85
2023-07-25T22:13:29.839Z,2.08
2023-07-25T22:15:56.955Z,1.85
2023-07-25T22:18:24.164Z,2.58
2023-07-25T22:20:53.104Z,3.72
2023-07-25T22:23:21.509Z,1.42
2023-07-25T22:25:49.068Z,2.35
2023-07-25T22:28:16.145Z,1.73
2023-07-25T22:30:43.272Z,2.03
2023-07-25T22:33:10.359Z,1.90
2023-07-25T22:35:37.597Z,2.75
2023-07-25T22:38:05.707Z,2.45
2023-07-25T22:40:33.050Z,2.72
2023-07-25T22:43:00.079Z,3.30
2023-07-25T22:45:28.498Z,2.50
2023-07-25T22:47:55.913Z,2.92
2023-07-25T22:50:23.535Z,3.83
2023-07-25T22:52:50.830Z,2.88
2023-07-25T22:55:19.553Z,4.13
2023-07-25T22:57:46.693Z,3.17
2023-07-25T23:00:14.860Z,2.75
2023-07-25T23:02:42.179Z,3.60
2023-07-25T23:05:09.827Z,3.00
2023-07-25T23:07:36.893Z,4.05
2023-07-25T23:10:04.538Z,3.25
2023-07-25T23:12:31.704Z,4.00
2023-07-25T23:14:58.798Z,5.45
2023-07-25T23:17:25.947Z,2.88
2023-07-25T23:19:53.178Z,2.85
2023-07-25T23:22:20.293Z,4.03
2023-07-25T23:24:47.587Z,4.20
2023-07-25T23:27:14.685Z,3.17
2023-07-25T23:29:41.745Z,4.03
2023-07-25T23:32:09.095Z,3.92
2023-07-25T23:34:51.070Z,4.53
2023-07-25T23:37:18.441Z,4.60
2023-07-25T23:39:45.637Z,3.00
2023-07-25T23:42:13.085Z,3.92
2023-07-25T23:44:42.966Z,5.15
2023-07-25T23:47:13.070Z,2.85
2023-07-25T23:49:40.383Z,4.45
2023-07-25T23:52:07.862Z,3.80
2023-07-25T23:54:35.073Z,3.55
2023-07-25T23:57:04.562Z,3.28
2023-07-25T23:59:32.180Z,3.37
